View Sortable Currents For Network
ASOSAWOSCoCoRaHSCOOPDCPISUSM
SchoolNetOtherSCANMy FavoritesBy StateRWIS
RWIS SurfaceRWIS TrafficRWIS SoilBy NWS WFOUSCRN

Current AWOS Conditions

** This page will automatically refresh every five minutes.
Sorted by: (Speed)     Click on a column to sort it.

Add ID: Name: Ob Time   Wind [knots]   Rainfall
Temp (Hi / Lo) DewP Feels RH% Dir Speed Peak Gust
@ Time
Alti Vsby Hour Today
CBFCOUNCIL BLUFFS02:55 AM 23(25/23) 18 11 81 90 1117 @ 02:15 AM 30.27 10 0
CSQCRESTON02:55 AM 21(23/21) 16 9 81 50 1010 @ 02:55 AM 30.31 10 0
SDASHENANDOAH MUNI02:55 AM 21(28/19) 18 11 88 50 812 @ 01:15 AM 30.29 10 0
OOAOskaloosa02:55 AM 18(18/17) 13 7 80 90 89 @ 02:15 AM 30.35 10 0
RDKRED OAK02:55 AM 23(27/23) 16 13 74 50 810 @ 12:15 AM 30.3 10 0
HPTHampton02:55 AM 18(18/14) 9 8 67 80 78 @ 02:15 AM 30.33 10 0
CNCCHARITON02:55 AM 21(21/19) 16 11 81 90 77 @ 02:35 AM 30.32 9 0
CAVCLARION02:55 AM 18(18/14) 12 8 77 160 717 @ 02:15 AM 30.34 10 0
FSWFORT MADISON02:55 AM 25(25/25) 19 17 78 40 66 @ 01:35 AM 30.38 10 0
ORCOrange City02:55 AM 18(18/18) 16 9 92 60 66 @ 02:55 AM 30.31 7 0
OLZOELWEIN02:55 AM 14(14/9) 12 4 92 40 67 @ 12:15 AM 30.37 10 0
TNUNEWTON MUNI02:55 AM 18(18/18) 14 9 84 60 68 @ 12:35 AM 30.35 10 0
DNSDENISON02:55 AM 19(21/19) 16 10 88 70 67 @ 12:55 AM 30.33 10 0
AWGWASHINGTON02:55 AM 18(18/16) 14 9 84 50 68 @ 01:15 AM 30.38 7 0
AIOATLANTIC02:55 AM 19(23/19) 16 10 88 60 66 @ 12:15 AM 30.32 10 0
FFLFAIRFIELD02:55 AM 19(19/18) 12 10 74 40 68 @ 12:35 AM 30.36 10 0
HNRHARLAN02:55 AM 19(19/18) 14 10 81 40 610 @ 01:35 AM 30.31 10 0
EOKKEOKUK MUNI02:55 AM 27(27/25) 19 20 71 40 66 @ 02:55 AM 30.36 10 0
SLBStorm Lake02:55 AM 14(18/14) 12 5 92 50 510 @ 12:35 AM 30.32 7 0
LRJLE MARS02:55 AM 16(16/16) 16 7 100 50 57 @ 12:55 AM 30.32 8 0
ICLCLARINDA02:55 AM 23(28/23) 16 16 74 40 510 @ 12:55 AM 30.31 10 0
IFAIowa Falls02:55 AM 18(19/15) 14 10 84 70 510 @ 01:55 AM 30.36 10 0
CCYCHARLES CITY02:55 AM 9(10/9) 5 -1 83 20 57 @ 01:35 AM 30.36 8 0
CWICLINTON02:56 AM 15(15/11) 12 6 88 320 56 @ 02:30 AM 30.41 9 0
AXAALGONA02:55 AM 14(14/14) 12 5 92 40 59 @ 02:15 AM 30.31 9 0
GGIGrinnell03:15 AM 16(19/16) 12 9 84 90 49 @ 01:35 AM 30.35 10 0
I75Osceola02:55 AM 23(23/22) 17 17 77 50 47 @ 02:15 AM 30.32 10 0
FXYForest City02:55 AM 16(16/12) 12 9 84 40 44 @ 02:55 AM 30.33 10 0
MPZMOUNT PLEASANT02:55 AM 23(23/23) 19 17 84 50 47 @ 12:15 AM 30.38 7 0
IKVANKENY02:55 AM 18(19/18) 12 11 77 20 47 @ 12:55 AM 30.38 10 0
BNWBOONE MUNI02:55 AM 10(19/10) 10 2 100 70 410 @ 12:55 AM 30.33 6 0
MUTMUSCATINE02:55 AM 21(21/18) 14 15 74 40 48 @ 02:15 AM 30.41 10 0
IIBINDEPENDENCE02:55 AM 14(14/9) 12 6 92 50 46 @ 12:35 AM 30.36 7 0
OXVKnoxville02:55 AM 19(21/19) 19 14 100 110 36 @ 01:15 AM 30.34 8 0
DEHDECORAH02:55 AM 9(9/9) 9 2 100 350 33 @ 02:55 AM 30.36 8 0
TVKCenterville 21 Feb 10:55 PMSite is Offline
EBSWebster City02:35 AM 12(18/12) 10 91 0 012 @ 12:55 AM 30.33 8 0
PEAPELLA02:55 AM 19(20/19) 14 81 0 04 @ 12:15 AM 30.36 7 0
CINCARROLL02:55 AM 12(18/10) 12 100 0 05 @ 12:55 AM 30.33 7 0
SHLSHELDON02:55 AM 16(16/14) 16 100 0 08 @ 01:15 AM 30.31 8 0
CKPCherokee02:55 AM 16(17/16) 14 92 0 04 @ 12:55 AM 30.34 7 0
FODFORT DODGE02:56 AM 15(17/15) 10 80 0 010 @ 01:00 AM 30.35 9 0
ADUAUDUBON02:55 AM 16(19/16) 10 77 0 00 @ 06:00 PM 30.31 10 0
PROPerry03:15 AM 16(19/14) 14 92 0 05 @ 02:15 AM 30.36 7 0
VTIVINTON02:55 AM 11(11/8) 8 87 0 05 @ 12:55 AM 30.38 7 0